Time;durP1;ratioP1;P1;durP2;ratioP2;P2;SDS_P1;SDS_P2;PMS_P1;PMS_P2;Temp;Humidity;BMP_temperature;BMP_pressure;BME280_temperature;BME280_humidity;BME280_pressure;Samples;Min_cycle;Max_cycle;Signal;HPM_P1;HPM_P2
2022/06/14 00:03:02;;;;;;;11.57;6.90;;;;;;;19.20;100.00;94676.13;4957933;28;20204;-84
2022/06/14 00:05:43;;;;;;;10.82;7.20;;;;;;;19.13;100.00;94673.75;4957507;28;20630;-84
2022/06/14 00:08:16;;;;;;;10.30;7.10;;;;;;;19.20;100.00;94673.47;4962243;28;20235;-82
2022/06/14 00:10:49;;;;;;;10.98;7.07;;;;;;;19.17;100.00;94680.06;4955301;28;20313;-83
2022/06/14 00:13:25;;;;;;;9.07;7.47;;;;;;;19.10;100.00;94676.97;4954432;28;20204;-84
2022/06/14 00:16:00;;;;;;;14.75;7.75;;;;;;;19.21;100.00;94685.59;4954803;28;20197;-83
2022/06/14 00:18:40;;;;;;;11.40;7.38;;;;;;;19.15;100.00;94670.88;4960713;28;20208;-85
2022/06/14 00:21:14;;;;;;;12.07;7.40;;;;;;;19.18;100.00;94676.41;4959983;28;20255;-85
2022/06/14 00:23:50;;;;;;;12.88;7.47;;;;;;;19.10;100.00;94681.44;4962539;28;20243;-85
2022/06/14 00:26:24;;;;;;;11.70;7.93;;;;;;;19.08;100.00;94667.72;4957389;28;20264;-84
2022/06/14 00:29:04;;;;;;;10.77;7.53;;;;;;;19.07;100.00;94682.78;4955612;28;20262;-85
2022/06/14 00:31:41;;;;;;;10.27;7.22;;;;;;;18.96;100.00;94669.91;4961769;28;20591;-84
2022/06/14 00:34:13;;;;;;;13.27;7.68;;;;;;;19.05;100.00;94681.44;4964047;28;20204;-83
2022/06/14 00:36:59;;;;;;;12.15;7.28;;;;;;;18.89;100.00;94675.47;4962991;28;20204;-83
2022/06/14 00:39:37;;;;;;;11.50;7.07;;;;;;;18.69;100.00;94664.97;4961226;28;20284;-83
2022/06/14 00:42:19;;;;;;;10.93;6.72;;;;;;;18.62;100.00;94686.31;4966219;28;20331;-83
2022/06/14 00:45:08;;;;;;;10.00;7.68;;;;;;;18.58;100.00;94687.91;4964783;28;20204;-82
2022/06/14 00:47:53;;;;;;;16.75;7.78;;;;;;;18.62;100.00;94682.88;4969070;28;20488;-82
2022/06/14 00:50:38;;;;;;;14.15;8.00;;;;;;;18.69;100.00;94678.16;4965264;28;20243;-81
2022/06/14 00:53:22;;;;;;;11.60;8.10;;;;;;;18.68;100.00;94676.56;4961426;28;20211;-84
2022/06/14 00:56:02;;;;;;;11.00;7.80;;;;;;;18.68;100.00;94676.56;4961875;28;20212;-80
2022/06/14 00:58:42;;;;;;;13.37;8.10;;;;;;;18.70;100.00;94684.97;4960516;28;20212;-81
2022/06/14 01:01:19;;;;;;;9.55;8.02;;;;;;;18.65;100.00;94679.72;4959472;28;20223;-81
2022/06/14 01:04:02;;;;;;;10.27;7.70;;;;;;;18.72;100.00;94688.16;4960415;28;20240;-82
2022/06/14 01:06:51;;;;;;;12.07;7.57;;;;;;;18.72;100.00;94690.78;4964722;28;20215;-82
2022/06/14 01:09:30;;;;;;;10.00;7.03;;;;;;;18.68;100.00;94692.34;4965948;28;20717;-81
2022/06/14 01:12:10;;;;;;;12.97;6.67;;;;;;;18.63;100.00;94689.75;4962547;28;20295;-82
2022/06/14 01:14:53;;;;;;;10.43;6.47;;;;;;;18.55;100.00;94680.56;4959698;28;20208;-83
2022/06/14 01:17:31;;;;;;;13.80;7.35;;;;;;;18.58;100.00;94687.91;4963842;28;20659;-82
2022/06/14 01:20:08;;;;;;;11.33;7.60;;;;;;;18.59;100.00;94680.78;4964875;28;20216;-81
2022/06/14 01:22:47;;;;;;;11.67;7.47;;;;;;;18.51;100.00;94663.69;4959670;28;20214;-81
2022/06/14 01:25:22;;;;;;;10.60;7.40;;;;;;;18.55;100.00;94680.56;4961758;28;20197;-81
2022/06/14 01:28:02;;;;;;;9.07;7.35;;;;;;;18.57;100.00;94672.38;4960257;28;20200;-83
2022/06/14 01:30:43;;;;;;;14.33;8.03;;;;;;;18.54;100.00;94672.91;4963487;28;20208;-82
2022/06/14 01:33:23;;;;;;;12.30;7.80;;;;;;;18.45;100.00;94664.72;4959855;28;20209;-83
2022/06/14 01:36:04;;;;;;;10.90;8.63;;;;;;;18.26;100.00;94650.56;4952926;28;20193;-83
2022/06/14 01:38:49;;;;;;;15.87;8.23;;;;;;;18.22;100.00;94659.22;4964404;28;20221;-82
2022/06/14 01:41:42;;;;;;;22.07;9.10;;;;;;;18.28;100.00;94668.69;4957692;28;20212;-82
2022/06/14 01:44:30;;;;;;;15.07;9.07;;;;;;;18.26;100.00;94666.34;4961365;28;20268;-82
2022/06/14 01:47:18;;;;;;;15.87;10.57;;;;;;;18.28;100.00;94669.50;4963603;28;20209;-83
2022/06/14 01:53:01;;;;;;;15.73;10.93;;;;;;;18.29;100.00;94675.56;4956695;28;20739;-84
2022/06/14 01:55:47;;;;;;;14.65;11.20;;;;;;;18.26;100.00;94676.09;4962463;28;20217;-84
2022/06/14 02:01:21;;;;;;;19.87;10.53;;;;;;;18.19;100.00;94680.81;4957198;28;20920;-82
2022/06/14 02:06:59;;;;;;;19.93;9.90;;;;;;;18.17;100.00;94682.94;4960694;28;20248;-82
2022/06/14 02:09:41;;;;;;;17.03;10.13;;;;;;;18.22;100.00;94678.44;4960626;28;20217;-81
2022/06/14 02:12:21;;;;;;;11.37;9.03;;;;;;;18.18;100.00;94677.41;4967813;28;20693;-83
2022/06/14 02:15:03;;;;;;;13.60;9.23;;;;;;;18.21;100.00;94684.75;4964176;28;20200;-84
2022/06/14 02:17:47;;;;;;;20.10;8.90;;;;;;;18.12;100.00;94678.47;4962978;28;20747;-82
2022/06/14 02:20:30;;;;;;;10.33;8.60;;;;;;;18.09;100.00;94682.38;4963652;28;20616;-82
2022/06/14 02:23:10;;;;;;;15.83;8.43;;;;;;;18.11;100.00;94695.28;4959301;28;20211;-82
2022/06/14 02:25:52;;;;;;;11.93;8.60;;;;;;;18.09;100.00;94700.03;4961077;28;20312;-82
2022/06/14 02:28:37;;;;;;;13.33;9.10;;;;;;;18.04;100.00;94702.66;4969392;28;20201;-83
2022/06/14 02:31:18;;;;;;;14.17;9.07;;;;;;;18.05;100.00;94702.41;4965380;28;20588;-83
2022/06/14 02:33:59;;;;;;;18.43;10.07;;;;;;;18.04;100.00;94719.22;4965060;28;20208;-83
2022/06/14 02:36:42;;;;;;;13.47;9.87;;;;;;;17.95;100.00;94715.53;4956044;28;20293;-82
2022/06/14 02:39:21;;;;;;;17.20;9.63;;;;;;;17.88;100.00;94708.94;4964644;28;20210;-83
2022/06/14 02:42:00;;;;;;;15.37;9.47;;;;;;;17.87;100.00;94716.06;4963350;28;20941;-82
2022/06/14 02:44:47;;;;;;;14.90;9.80;;;;;;;17.89;100.00;94719.19;4963566;28;20221;-83
2022/06/14 02:47:35;;;;;;;13.60;9.73;;;;;;;17.84;100.00;94721.81;4961583;28;20588;-83
2022/06/14 02:50:16;;;;;;;16.37;9.23;;;;;;;17.84;100.00;94726.28;4960285;28;20208;-83
2022/06/14 02:52:57;;;;;;;14.07;9.40;;;;;;;17.84;100.00;94721.03;4954314;28;20197;-83
2022/06/14 02:55:33;;;;;;;19.40;9.27;;;;;;;17.83;100.00;94727.38;4954858;28;20196;-83
2022/06/14 02:58:09;;;;;;;14.50;9.40;;;;;;;17.78;100.00;94720.25;4962311;28;20201;-82
2022/06/14 03:00:52;;;;;;;14.27;9.53;;;;;;;17.76;100.00;94721.56;4955594;28;20628;-83
2022/06/14 03:03:32;;;;;;;14.13;9.13;;;;;;;17.74;100.00;94726.28;4959218;28;20582;-82
2022/06/14 03:06:13;;;;;;;17.70;10.07;;;;;;;17.75;100.00;94712.09;4962433;28;20253;-84
2022/06/14 03:08:54;;;;;;;12.40;9.40;;;;;;;17.75;100.00;94727.88;4962339;28;20212;-83
2022/06/14 03:11:41;;;;;;;16.83;9.90;;;;;;;17.77;100.00;94731.81;4956861;28;20663;-83
2022/06/14 03:14:26;;;;;;;15.80;9.60;;;;;;;17.71;100.00;94726.81;4962719;28;20201;-83
2022/06/14 03:17:17;;;;;;;17.30;9.73;;;;;;;17.74;100.00;94737.59;4956698;28;20204;-83
2022/06/14 03:20:02;;;;;;;16.27;9.17;;;;;;;17.77;100.00;94731.81;4956777;28;20260;-84
2022/06/14 03:22:47;;;;;;;13.90;10.17;;;;;;;17.82;100.00;94741.56;4962410;28;20216;-83
2022/06/14 03:25:27;;;;;;;13.20;9.63;;;;;;;17.84;100.00;94732.34;4964619;28;20259;-84
2022/06/14 03:28:04;;;;;;;13.37;9.53;;;;;;;17.85;100.00;94731.31;4960081;28;20865;-83
2022/06/14 03:30:48;;;;;;;15.57;10.00;;;;;;;17.88;100.00;94732.63;4957747;28;20209;-84
2022/06/14 03:33:38;;;;;;;16.17;9.73;;;;;;;17.88;100.00;94727.38;4961068;28;20200;-84
2022/06/14 03:36:18;;;;;;;18.37;10.17;;;;;;;17.94;100.00;94723.69;4958950;28;20260;-85
2022/06/14 03:39:08;;;;;;;15.93;10.20;;;;;;;17.94;100.00;94728.94;4955995;28;20216;-83
2022/06/14 03:41:45;;;;;;;12.77;9.50;;;;;;;17.94;100.00;94727.13;4958669;28;20233;-83
2022/06/14 03:44:20;;;;;;;16.60;10.37;;;;;;;18.00;100.00;94733.97;4963032;28;20295;-83
2022/06/14 03:47:13;;;;;;;13.30;10.10;;;;;;;18.00;100.00;94728.72;4961014;28;20282;-84
2022/06/14 03:49:59;;;;;;;26.90;16.17;;;;;;;18.04;100.00;94736.84;4959605;28;20729;-83
2022/06/14 03:52:57;;;;;;;29.80;20.07;;;;;;;18.06;100.00;94742.66;4932606;29;20205;-78
2022/06/14 03:55:48;;;;;;;31.77;20.47;;;;;;;18.14;100.00;94745.56;4935525;29;20265;-78
2022/06/14 03:58:38;;;;;;;31.40;21.77;;;;;;;18.14;100.00;94740.28;4940903;29;20256;-79
2022/06/14 04:01:26;;;;;;;32.50;20.43;;;;;;;18.20;100.00;94741.06;4938272;29;20224;-78
2022/06/14 04:04:30;;;;;;;33.27;18.77;;;;;;;18.18;100.00;94743.19;4943287;28;20239;-78
2022/06/14 04:07:20;;;;;;;27.20;17.97;;;;;;;18.20;100.00;94740.28;4948179;29;20845;-80
2022/06/14 04:10:13;;;;;;;19.50;15.67;;;;;;;18.29;100.00;94746.59;4946765;28;20573;-79
2022/06/14 04:12:57;;;;;;;23.37;14.07;;;;;;;18.44;100.00;94743.97;4944156;29;20213;-77
2022/06/14 04:15:35;;;;;;;22.07;13.63;;;;;;;18.50;100.00;94742.91;4937778;29;20771;-80
2022/06/14 04:18:41;;;;;;;26.88;13.65;;;;;;;18.53;100.00;94756.34;4941387;29;20214;-79
2022/06/14 04:21:39;;;;;;;18.42;13.43;;;;;;;18.56;100.00;94744.50;4948494;29;20602;-79
2022/06/14 04:24:21;;;;;;;21.30;12.20;;;;;;;18.68;100.00;94752.91;4950093;28;20197;-80
2022/06/14 04:27:05;;;;;;;21.77;12.80;;;;;;;18.78;100.00;94757.38;4948793;29;20584;-80
2022/06/14 04:29:45;;;;;;;21.60;12.50;;;;;;;18.79;100.00;94766.88;4944693;29;20208;-77
2022/06/14 04:32:21;;;;;;;17.73;11.30;;;;;;;18.87;100.00;94759.22;4945031;29;20293;-79
2022/06/14 04:35:02;;;;;;;20.63;11.60;;;;;;;18.96;100.00;94762.09;4945627;29;20604;-78
2022/06/14 04:37:38;;;;;;;23.25;12.60;;;;;;;19.01;100.00;94762.88;4948811;28;20587;-78
2022/06/14 04:40:14;;;;;;;18.50;12.27;;;;;;;19.11;100.00;94765.47;4931398;28;20674;-80
2022/06/14 04:42:47;;;;;;;24.58;11.90;;;;;;;19.12;100.00;94767.06;4943942;28;20217;-80
2022/06/14 04:45:20;;;;;;;19.30;11.50;;;;;;;19.17;100.00;94774.94;4949149;29;20209;-78
2022/06/14 04:47:55;;;;;;;15.10;10.82;;;;;;;19.26;100.00;94780.47;4942317;29;20236;-79
2022/06/14 04:50:30;;;;;;;13.93;10.43;;;;;;;19.22;100.00;94769.66;4952525;28;20715;-79
2022/06/14 04:53:05;;;;;;;17.30;10.05;;;;;;;19.34;100.00;94776.47;4968044;28;20220;-79
2022/06/14 04:55:42;;;;;;;15.55;9.65;;;;;;;19.43;100.00;94774.88;4972663;28;20209;-80
2022/06/14 04:58:17;;;;;;;15.13;10.20;;;;;;;19.47;100.00;94781.22;4967704;28;20283;-80
2022/06/14 05:00:49;;;;;;;15.15;9.25;;;;;;;19.48;100.00;94780.16;4973407;28;20254;-80
2022/06/14 05:03:22;;;;;;;14.38;9.90;;;;;;;19.50;100.00;94781.47;4961883;28;20597;-80
2022/06/14 05:05:56;;;;;;;19.60;8.90;;;;;;;19.59;100.00;94781.69;4959996;28;20206;-78
2022/06/14 05:08:33;;;;;;;17.30;9.27;;;;;;;19.64;100.00;94785.09;4967254;28;20590;-77
2022/06/14 05:11:11;;;;;;;15.40;9.50;;;;;;;19.68;100.00;94788.75;4968513;28;20673;-78
2022/06/14 05:13:49;;;;;;;12.73;8.88;;;;;;;19.78;100.00;94795.84;4964097;28;20609;-79
2022/06/14 05:16:26;;;;;;;19.42;9.20;;;;;;;19.86;100.00;94791.84;4962232;28;20271;-80
2022/06/14 05:19:08;;;;;;;15.32;9.05;;;;;;;19.93;100.00;94800.25;4955232;28;20301;-80
2022/06/14 05:21:48;;;;;;;17.67;8.88;;;;;;;19.95;100.00;94798.13;4962359;28;20228;-80
2022/06/14 05:24:18;;;;;;;21.65;11.02;;;;;;;20.05;100.00;94800.72;4959574;28;20293;-80
2022/06/14 05:27:09;;;;;;;16.52;10.63;;;;;;;20.10;100.00;94801.47;4968325;28;20656;-79
2022/06/14 05:29:46;;;;;;;16.85;9.18;;;;;;;20.13;100.00;94816.75;4960433;28;20217;-79
2022/06/14 05:32:26;;;;;;;14.80;9.40;;;;;;;20.16;100.00;94812.78;4964029;28;20278;-80
2022/06/14 05:35:08;;;;;;;16.67;10.48;;;;;;;20.18;100.00;94815.94;4958447;28;20209;-79
2022/06/14 05:37:44;;;;;;;23.27;10.13;;;;;;;20.14;100.00;94825.47;4961674;28;20204;-79
2022/06/14 05:40:35;;;;;;;15.13;9.90;;;;;;;20.12;100.00;94819.66;4958166;28;20201;-80
2022/06/14 05:43:14;;;;;;;19.02;9.60;;;;;;;20.14;100.00;94822.84;4961085;28;20208;-79
2022/06/14 05:45:50;;;;;;;17.80;9.18;;;;;;;20.17;100.00;94825.69;4960610;28;20714;-85
2022/06/14 05:48:29;;;;;;;14.52;10.20;;;;;;;20.14;100.00;94833.41;4961850;28;20207;-85
2022/06/14 05:51:04;;;;;;;12.95;9.13;;;;;;;20.01;100.00;94826.84;4967037;28;20244;-78
2022/06/14 05:53:44;;;;;;;19.98;8.82;;;;;;;19.80;100.00;94841.19;4960411;28;20205;-78
2022/06/14 05:56:24;;;;;;;14.50;8.50;;;;;;;19.73;100.00;94833.59;4956820;28;20661;-78
2022/06/14 05:59:08;;;;;;;16.40;8.05;;;;;;;19.73;100.00;94838.06;4959475;28;20686;-78
2022/06/14 06:01:46;;;;;;;16.17;8.20;;;;;;;19.73;100.00;94825.69;4956272;28;20243;-84
2022/06/14 06:04:23;;;;;;;10.85;8.13;;;;;;;19.64;100.00;94826.50;4956540;28;20228;-83
2022/06/14 06:07:00;;;;;;;13.95;8.40;;;;;;;19.80;100.00;94830.63;4965922;28;20208;-83
2022/06/14 06:09:36;;;;;;;10.05;8.18;;;;;;;19.74;100.00;94823.81;4960615;28;21638;-83
2022/06/14 06:12:13;;;;;;;14.95;8.55;;;;;;;19.76;100.00;94835.69;4961528;28;20208;-85
2022/06/14 06:14:52;;;;;;;13.65;8.65;;;;;;;19.68;100.00;94836.22;4957520;28;20204;-83
2022/06/14 06:17:30;;;;;;;13.60;9.10;;;;;;;19.71;100.00;94840.19;4962387;28;20718;-84
2022/06/14 06:20:06;;;;;;;12.60;9.00;;;;;;;19.66;100.00;94842.84;4964929;28;20216;-83
2022/06/14 06:22:42;;;;;;;11.02;8.60;;;;;;;19.69;100.00;94842.28;4958845;28;20236;-82
2022/06/14 06:25:17;;;;;;;9.32;8.13;;;;;;;19.71;100.00;94848.09;4956440;28;20231;-78
2022/06/14 06:27:56;;;;;;;10.15;7.90;;;;;;;19.59;100.00;94845.78;4958011;28;20608;-82
2022/06/14 06:30:32;;;;;;;13.20;8.10;;;;;;;19.70;100.00;94843.88;4958258;28;20213;-83
2022/06/14 06:33:10;;;;;;;13.75;8.27;;;;;;;19.77;100.00;94833.81;4958623;28;20204;-79
2022/06/14 06:35:51;;;;;;;10.77;8.50;;;;;;;19.81;100.00;94842.78;4958345;28;20633;-86
2022/06/14 06:38:37;;;;;;;16.27;8.70;;;;;;;19.82;100.00;94844.38;4956999;28;20209;-84
2022/06/14 06:44:06;;;;;;;16.70;8.82;;;;;;;20.01;100.00;94847.16;4961482;28;20795;-83
2022/06/14 06:46:47;;;;;;;10.43;8.15;;;;;;;19.87;100.00;94836.44;4962577;28;20702;-82
2022/06/14 06:49:25;;;;;;;11.93;8.15;;;;;;;20.09;100.00;94863.22;4957815;28;20287;-83
2022/06/14 06:52:02;;;;;;;12.85;8.65;;;;;;;20.14;100.00;94862.44;4957453;28;20245;-83
2022/06/14 06:54:43;;;;;;;9.20;7.90;;;;;;;20.15;100.00;94859.50;4956875;28;20232;-80
2022/06/14 06:57:17;;;;;;;9.65;7.82;;;;;;;20.26;100.00;94870.81;4959735;28;20196;-81
2022/06/14 06:59:55;;;;;;;10.38;8.10;;;;;;;20.33;100.00;94869.47;4957776;28;20204;-81
2022/06/14 07:02:33;;;;;;;12.00;8.65;;;;;;;20.22;100.00;94862.66;4957091;28;20316;-85
2022/06/14 07:05:14;;;;;;;11.68;7.70;;;;;;;20.33;100.00;94856.28;4963326;28;20271;-83
2022/06/14 07:08:00;;;;;;;10.15;7.53;;;;;;;20.60;100.00;94865.63;4956716;28;20212;-82
2022/06/14 07:10:40;;;;;;;11.60;8.68;;;;;;;20.78;100.00;94872.84;4963357;28;20666;-86
2022/06/14 07:13:21;;;;;;;12.20;8.13;;;;;;;20.83;100.00;94865.72;4965752;28;20200;-83
2022/06/14 07:16:02;;;;;;;9.75;7.68;;;;;;;20.82;100.00;94861.47;4963857;28;20197;-84
2022/06/14 07:18:41;;;;;;;11.48;7.70;;;;;;;20.94;100.00;94867.19;4961601;28;20216;-83
2022/06/14 07:21:17;;;;;;;11.82;6.80;;;;;;;20.93;100.00;94868.25;4955128;28;20649;-81
2022/06/14 07:23:51;;;;;;;10.65;8.05;;;;;;;20.93;100.00;94867.47;4959756;28;20204;-82
2022/06/14 07:26:28;;;;;;;14.02;8.25;;;;;;;20.92;100.00;94864.03;4959150;28;20227;-80
2022/06/14 07:29:02;;;;;;;9.82;7.72;;;;;;;20.92;100.00;94876.47;4960749;28;20290;-78
2022/06/14 07:31:42;;;;;;;9.25;7.97;;;;;;;21.03;100.00;94877.97;4957017;28;20276;-83
2022/06/14 07:34:25;;;;;;;16.67;7.75;;;;;;;21.12;100.00;94875.53;4966831;28;20256;-75
2022/06/14 07:37:07;;;;;;;15.40;8.00;;;;;;;21.23;100.00;94877.03;4964533;28;20202;-79
2022/06/14 07:39:45;;;;;;;10.55;7.55;;;;;;;21.30;100.00;94882.75;4952557;28;20655;-80
2022/06/14 07:42:23;;;;;;;9.68;8.48;;;;;;;21.36;100.00;94885.09;4953013;29;20201;-80
2022/06/14 07:45:05;;;;;;;13.70;7.88;;;;;;;21.46;100.00;94881.56;4954128;28;20264;-81
2022/06/14 07:47:42;;;;;;;12.60;7.88;;;;;;;21.56;100.00;94885.97;4960256;28;20233;-82
2022/06/14 07:50:22;;;;;;;11.90;7.88;;;;;;;21.64;100.00;94877.41;4953050;29;20219;-81
2022/06/14 07:53:00;;;;;;;9.90;7.72;;;;;;;21.81;100.00;94877.75;4953253;29;20739;-81
2022/06/14 07:55:41;;;;;;;11.07;7.65;;;;;;;21.96;100.00;94877.63;4953037;29;20189;-81
2022/06/14 07:58:16;;;;;;;12.63;8.23;;;;;;;22.08;100.00;94872.69;4963029;28;20604;-82
2022/06/14 08:03:45;;;;;;;8.93;7.18;;;;;;;22.34;100.00;94873.13;4972268;28;20196;-81
2022/06/14 08:06:26;;;;;;;10.07;7.30;;;;;;;22.18;100.00;94875.22;4968298;28;20199;-81
2022/06/14 08:09:11;;;;;;;10.10;6.97;;;;;;;22.09;100.00;94890.16;4952717;29;20193;-78
2022/06/14 08:11:51;;;;;;;10.32;6.78;;;;;;;22.22;100.00;94888.69;4954791;28;20216;-78
2022/06/14 08:14:32;;;;;;;12.10;6.68;;;;;;;22.38;99.61;94872.28;4957301;28;20224;-78
2022/06/14 08:17:10;;;;;;;9.52;6.75;;;;;;;22.50;98.50;94875.31;4952880;28;20205;-81
2022/06/14 08:19:52;;;;;;;9.43;6.82;;;;;;;22.60;95.18;94867.19;4953625;29;20723;-87
2022/06/14 08:22:37;;;;;;;10.00;6.40;;;;;;;22.61;95.08;94874.09;4970689;28;20221;-88
2022/06/14 08:25:21;;;;;;;9.23;6.20;;;;;;;22.72;95.52;94874.75;4971656;28;20241;-88
2022/06/14 08:28:06;;;;;;;9.45;6.43;;;;;;;22.77;91.68;94865.94;4968436;28;20213;-88
2022/06/14 08:30:45;;;;;;;9.63;6.03;;;;;;;22.83;92.17;94862.13;4953403;29;20611;-88
2022/06/14 08:33:25;;;;;;;8.43;6.13;;;;;;;22.71;92.25;94864.44;4954130;29;20252;-85
2022/06/14 08:36:04;;;;;;;8.77;6.20;;;;;;;22.60;93.30;94850.50;4956658;28;20676;-89
2022/06/14 08:38:47;;;;;;;7.40;6.25;;;;;;;22.73;92.30;94849.81;4953879;28;20586;-86
2022/06/14 08:41:36;;;;;;;9.15;5.97;;;;;;;22.67;92.58;94858.91;4953574;29;20637;-88
2022/06/14 08:44:12;;;;;;;10.63;6.50;;;;;;;22.71;94.85;94859.94;4954258;29;20197;-88
2022/06/14 08:46:45;;;;;;;11.63;6.68;;;;;;;22.78;94.42;94852.38;4965215;28;20660;-88
2022/06/14 08:49:29;;;;;;;13.50;6.55;;;;;;;22.94;94.33;94872.28;4973205;28;20205;-88
2022/06/14 08:52:36;;;;;;;9.48;6.53;;;;;;;23.07;93.33;94863.59;4974238;28;20229;-89
2022/06/14 08:55:41;;;;;;;8.88;6.85;;;;;;;23.18;92.13;94850.94;4966556;28;20222;-88
2022/06/14 08:58:48;;;;;;;11.38;6.13;;;;;;;23.36;91.00;94866.00;4936610;28;20209;-87
2022/06/14 09:01:33;;;;;;;6.93;5.75;;;;;;;23.30;87.79;94866.38;4956928;29;20649;-87
2022/06/14 09:04:34;;;;;;;10.27;6.35;;;;;;;23.15;89.91;94854.16;4956350;29;20206;-88
2022/06/14 09:07:36;;;;;;;9.85;6.20;;;;;;;23.23;89.28;94858.03;4936955;29;20202;-88
2022/06/14 09:10:24;;;;;;;8.13;5.78;;;;;;;23.34;90.48;94859.41;4957125;29;20235;-89
2022/06/14 09:13:24;;;;;;;6.55;5.57;;;;;;;23.45;88.25;94864.28;4956907;29;20206;-87
2022/06/14 09:16:39;;;;;;;10.90;6.00;;;;;;;23.53;87.56;94862.81;4957055;28;20284;-89
2022/06/14 09:19:37;;;;;;;8.32;5.53;;;;;;;23.67;87.39;94859.09;4955947;28;20665;-86
2022/06/14 09:22:37;;;;;;;9.57;5.60;;;;;;;23.73;85.56;94859.78;4971665;28;20286;-88
2022/06/14 09:25:32;;;;;;;10.02;5.68;;;;;;;23.93;85.42;94859.38;4974229;28;20535;-86
2022/06/14 09:28:27;;;;;;;7.50;5.85;;;;;;;24.14;84.68;94865.91;4975261;28;20594;-84
2022/06/14 09:31:27;;;;;;;7.25;5.63;;;;;;;24.27;80.96;94859.75;4975546;28;20251;-84
2022/06/14 09:34:27;;;;;;;7.35;4.95;;;;;;;24.37;81.62;94856.09;4974815;28;20644;-85
2022/06/14 09:37:45;;;;;;;9.40;5.43;;;;;;;24.38;80.67;94855.03;4974530;28;20193;-81
2022/06/14 09:40:46;;;;;;;11.55;5.30;;;;;;;24.26;81.82;94868.03;4976056;28;20668;-90
2022/06/14 09:43:47;;;;;;;11.40;5.40;;;;;;;24.32;81.64;94861.53;4975971;28;20231;-90
2022/06/14 09:46:48;;;;;;;8.00;5.50;;;;;;;24.46;81.77;94851.66;4976312;28;20279;-90
2022/06/14 09:50:00;;;;;;;5.80;5.05;;;;;;;24.48;79.73;94851.34;4971455;28;20327;-90
2022/06/14 09:53:15;;;;;;;8.48;5.95;;;;;;;24.68;80.89;94878.25;4976957;28;20193;-88
2022/06/14 09:56:18;;;;;;;7.18;5.93;;;;;;;24.68;79.92;94872.94;4952317;28;20200;-89
2022/06/14 09:59:26;;;;;;;7.97;5.55;;;;;;;24.75;81.04;94883.19;4975288;28;20235;-90
2022/06/14 10:02:16;;;;;;;10.43;5.35;;;;;;;24.77;76.99;94881.78;4974487;28;20204;-91
2022/06/14 10:05:27;;;;;;;9.73;4.63;;;;;;;24.85;74.98;94887.50;4975856;28;20180;-90
2022/06/14 10:08:38;;;;;;;9.57;4.25;;;;;;;24.64;66.38;94879.19;4975482;28;20200;-88
2022/06/14 10:11:27;;;;;;;6.32;3.45;;;;;;;24.42;64.00;94876.47;4974831;28;20189;-88
2022/06/14 10:14:22;;;;;;;4.60;3.90;;;;;;;24.16;63.23;94889.50;4974953;28;20228;-89
2022/06/14 10:17:18;;;;;;;6.97;3.42;;;;;;;24.01;63.41;94892.44;4974971;28;20193;-90
2022/06/14 10:20:31;;;;;;;5.00;3.28;;;;;;;23.84;63.40;94886.94;4974796;28;20676;-88
2022/06/14 10:23:16;;;;;;;3.83;3.20;;;;;;;23.66;64.28;94892.00;4922584;28;20225;-89
2022/06/14 10:29:01;;;;;;;5.93;3.58;;;;;;;23.27;66.75;94896.16;4969373;28;20220;-89
2022/06/14 10:31:47;;;;;;;5.65;3.75;;;;;;;23.16;67.65;94887.56;4974921;28;20224;-90
2022/06/14 10:34:27;;;;;;;4.40;3.58;;;;;;;22.99;68.24;94885.47;4974594;28;20193;-88
2022/06/14 10:37:28;;;;;;;4.93;3.35;;;;;;;22.74;66.80;94874.47;4974735;28;20338;-88
2022/06/14 10:40:31;;;;;;;4.40;3.42;;;;;;;22.63;66.60;94862.41;4973657;28;20312;-89
2022/06/14 10:43:14;;;;;;;6.97;3.78;;;;;;;22.75;66.96;94868.06;4975839;28;20224;-90
2022/06/14 10:45:55;;;;;;;5.25;3.95;;;;;;;22.70;66.51;94882.19;4975033;28;20645;-90
2022/06/14 10:48:55;;;;;;;5.00;3.58;;;;;;;22.47;67.37;94859.19;4977867;28;20671;-89
2022/06/14 10:51:55;;;;;;;8.02;3.55;;;;;;;22.56;67.95;94858.25;4980296;28;20258;-89
2022/06/14 10:54:51;;;;;;;4.28;3.60;;;;;;;22.70;65.69;94868.94;4974558;28;20211;-89
2022/06/14 10:57:51;;;;;;;7.22;3.47;;;;;;;22.49;64.47;94864.97;4974014;28;20201;-89
2022/06/14 11:00:36;;;;;;;4.05;3.50;;;;;;;22.38;66.31;94864.34;4974573;28;20227;-91
2022/06/14 11:03:23;;;;;;;4.95;3.53;;;;;;;22.49;67.17;94871.06;4974047;28;20703;-89
2022/06/14 11:06:23;;;;;;;5.55;3.38;;;;;;;22.59;67.86;94868.28;4973962;28;20220;-88
2022/06/14 11:09:03;;;;;;;5.35;3.53;;;;;;;22.72;67.90;94856.19;4969214;28;20679;-89
2022/06/14 11:11:53;;;;;;;4.78;3.70;;;;;;;22.84;68.55;94872.44;4973979;28;20177;-88
2022/06/14 11:14:31;;;;;;;8.88;3.85;;;;;;;22.87;67.82;94865.78;4973749;28;20243;-88
2022/06/14 11:17:26;;;;;;;7.38;4.15;;;;;;;22.88;68.48;94862.06;4973842;28;20204;-88
2022/06/14 11:20:13;;;;;;;5.10;3.90;;;;;;;23.13;70.64;94873.03;4973617;28;20185;-88
2022/06/14 11:22:46;;;;;;;6.93;4.03;;;;;;;23.07;72.26;94860.94;4973490;28;20223;-89
2022/06/14 11:25:32;;;;;;;6.78;4.10;;;;;;;23.02;71.26;94865.53;4974389;28;20201;-85
2022/06/14 11:28:10;;;;;;;11.55;4.47;;;;;;;22.68;72.20;94825.25;4974252;28;20259;-86
2022/06/14 11:30:46;;;;;;;8.85;4.40;;;;;;;23.01;71.92;94858.66;4973292;28;20208;-89
2022/06/14 11:33:28;;;;;;;8.52;4.22;;;;;;;23.17;70.44;94867.94;4974050;28;20201;-89
2022/06/14 11:36:22;;;;;;;7.90;4.55;;;;;;;23.36;69.54;94868.66;4973826;28;20299;-88
2022/06/14 11:39:07;;;;;;;8.18;4.43;;;;;;;23.35;69.53;94850.41;4973628;28;20256;-85
2022/06/14 11:41:48;;;;;;;7.78;4.20;;;;;;;23.43;68.78;94849.75;4973033;28;20195;-87
2022/06/14 11:45:03;;;;;;;7.70;3.78;;;;;;;23.88;67.75;94846.22;4973342;28;20246;-83
2022/06/14 11:47:47;;;;;;;8.00;4.20;;;;;;;24.30;66.11;94842.44;4973528;28;20656;-87
2022/06/14 11:50:32;;;;;;;12.82;4.10;;;;;;;24.71;66.58;94848.41;4972868;28;20196;-84
2022/06/14 11:53:25;;;;;;;7.22;4.47;;;;;;;25.14;65.30;94840.75;4971901;28;20261;-80
2022/06/14 11:56:05;;;;;;;8.32;3.90;;;;;;;25.49;66.24;94825.00;4972567;28;20189;-80
2022/06/14 11:58:54;;;;;;;10.05;4.05;;;;;;;25.71;66.19;94839.03;4972374;28;20719;-79
2022/06/14 12:01:41;;;;;;;7.32;3.90;;;;;;;25.85;65.16;94822.94;4972224;28;20224;-78
2022/06/14 12:04:25;;;;;;;8.88;4.25;;;;;;;25.78;64.13;94828.72;4952740;29;20224;-80
2022/06/14 12:07:01;;;;;;;8.45;3.90;;;;;;;25.73;65.08;94822.75;4952920;29;20656;-81
2022/06/14 12:09:59;;;;;;;4.53;4.13;;;;;;;25.70;66.15;94816.16;4953213;29;20190;-81
2022/06/14 12:12:45;;;;;;;5.45;4.13;;;;;;;25.65;68.62;94826.97;4952387;29;20221;-80
2022/06/14 12:15:49;;;;;;;6.18;4.47;;;;;;;26.04;66.19;94831.44;4952759;28;20212;-83
2022/06/14 12:18:25;;;;;;;9.77;4.00;;;;;;;26.38;65.91;94815.53;4970651;28;20255;-83
2022/06/14 12:21:08;;;;;;;6.93;4.53;;;;;;;26.64;66.00;94820.09;4972069;28;20181;-80
2022/06/14 12:23:47;;;;;;;5.50;3.90;;;;;;;26.58;64.95;94832.03;4972229;28;20310;-80
2022/06/14 12:26:39;;;;;;;7.72;3.67;;;;;;;27.00;63.78;94832.03;4973119;28;20204;-79
2022/06/14 12:29:17;;;;;;;9.88;4.10;;;;;;;27.48;60.99;94834.44;4973824;28;20208;-79
2022/06/14 12:32:11;;;;;;;7.60;3.80;;;;;;;27.86;59.93;94820.28;4975827;28;20298;-80
2022/06/14 12:34:54;;;;;;;5.55;3.15;;;;;;;28.05;61.46;94808.09;4975689;28;20193;-79
2022/06/14 12:37:37;;;;;;;3.63;3.30;;;;;;;28.06;60.03;94824.94;4975886;28;20204;-79
2022/06/14 12:40:11;;;;;;;7.30;3.50;;;;;;;28.06;59.49;94816.91;4975229;28;20667;-79
2022/06/14 12:42:45;;;;;;;4.20;3.47;;;;;;;28.28;60.62;94807.81;4975366;28;20236;-79
2022/06/14 12:45:27;;;;;;;6.15;2.90;;;;;;;28.02;56.05;94811.38;4976165;28;20181;-79
2022/06/14 12:48:16;;;;;;;8.05;3.15;;;;;;;28.02;57.69;94806.03;4974464;28;20197;-80
2022/06/14 12:51:03;;;;;;;8.50;3.20;;;;;;;27.73;57.55;94803.38;4975199;28;20240;-80
2022/06/14 12:53:46;;;;;;;6.55;3.05;;;;;;;27.57;58.48;94795.13;4974735;28;20181;-80
2022/06/14 12:56:20;;;;;;;4.95;3.10;;;;;;;27.37;58.43;94808.38;4975276;28;20195;-80
2022/06/14 12:59:10;;;;;;;4.05;3.00;;;;;;;27.32;57.52;94805.88;4974929;28;20200;-80